Terminal Aerodrome Forecast
Issued by NWS

Home | Current Version | Previous Version | Text Only | Print | Product List | Glossary Off
Versions: 1 2 3 4 5 6 7 8 9 10 11 12 13 14 15 16 17 18 19 20 21 22 23 24 25

000
FTUS43 KABR 290400 AAB
TAFPIR
TAF AMD
KPIR 290415Z 2904/2924 03015KT P6SM OVC012
     FM291200 06014KT P6SM OVC006
     FM291800 10013KT P6SM OVC020
     FM292100 10015KT P6SM OVC040=

USA.gov is the U.S. government's official web portal to all federal, state and local government web resources and services.